sensor_id;sensor_type;location;lat;lon;timestamp;P1;durP1;ratioP1;P2;durP2;ratioP2
2934;SDS011;2462;51.456;7.248;2023-01-30T00:01:52;17.53;;;11.70;;
2934;SDS011;2462;51.456;7.248;2023-01-30T00:04:18;16.57;;;10.50;;
2934;SDS011;2462;51.456;7.248;2023-01-30T00:06:44;16.90;;;11.73;;
2934;SDS011;2462;51.456;7.248;2023-01-30T00:09:13;16.70;;;11.87;;
2934;SDS011;2462;51.456;7.248;2023-01-30T00:11:39;15.33;;;10.67;;
2934;SDS011;2462;51.456;7.248;2023-01-30T00:14:07;15.50;;;10.77;;
2934;SDS011;2462;51.456;7.248;2023-01-30T00:16:33;17.57;;;11.97;;
2934;SDS011;2462;51.456;7.248;2023-01-30T00:18:59;17.23;;;10.83;;
2934;SDS011;2462;51.456;7.248;2023-01-30T00:21:25;15.70;;;11.77;;
2934;SDS011;2462;51.456;7.248;2023-01-30T00:23:51;16.00;;;10.67;;
2934;SDS011;2462;51.456;7.248;2023-01-30T00:26:17;15.90;;;11.73;;
2934;SDS011;2462;51.456;7.248;2023-01-30T00:28:43;16.70;;;11.70;;
2934;SDS011;2462;51.456;7.248;2023-01-30T00:31:09;17.43;;;11.80;;
2934;SDS011;2462;51.456;7.248;2023-01-30T00:33:35;16.03;;;11.37;;
2934;SDS011;2462;51.456;7.248;2023-01-30T00:36:02;15.17;;;11.40;;
2934;SDS011;2462;51.456;7.248;2023-01-30T00:38:29;16.60;;;11.87;;
2934;SDS011;2462;51.456;7.248;2023-01-30T00:40:55;17.20;;;12.00;;
2934;SDS011;2462;51.456;7.248;2023-01-30T00:43:21;15.00;;;11.33;;
2934;SDS011;2462;51.456;7.248;2023-01-30T00:46:25;14.27;;;10.70;;
2934;SDS011;2462;51.456;7.248;2023-01-30T00:49:14;13.50;;;10.03;;
2934;SDS011;2462;51.456;7.248;2023-01-30T00:51:40;16.40;;;11.57;;
2934;SDS011;2462;51.456;7.248;2023-01-30T00:54:06;14.93;;;11.70;;
2934;SDS011;2462;51.456;7.248;2023-01-30T00:56:32;13.90;;;11.03;;
2934;SDS011;2462;51.456;7.248;2023-01-30T00:58:58;14.80;;;11.00;;
2934;SDS011;2462;51.456;7.248;2023-01-30T01:01:24;15.70;;;11.27;;
2934;SDS011;2462;51.456;7.248;2023-01-30T01:03:50;17.80;;;13.13;;
2934;SDS011;2462;51.456;7.248;2023-01-30T01:06:16;14.80;;;10.80;;
2934;SDS011;2462;51.456;7.248;2023-01-30T01:08:42;14.43;;;10.93;;
2934;SDS011;2462;51.456;7.248;2023-01-30T01:11:08;16.10;;;11.07;;
2934;SDS011;2462;51.456;7.248;2023-01-30T01:13:34;16.20;;;11.40;;
2934;SDS011;2462;51.456;7.248;2023-01-30T01:16:00;14.90;;;10.50;;
2934;SDS011;2462;51.456;7.248;2023-01-30T01:18:26;14.57;;;11.27;;
2934;SDS011;2462;51.456;7.248;2023-01-30T01:20:52;16.50;;;10.70;;
2934;SDS011;2462;51.456;7.248;2023-01-30T01:23:18;15.80;;;11.10;;
2934;SDS011;2462;51.456;7.248;2023-01-30T01:25:44;14.50;;;10.70;;
2934;SDS011;2462;51.456;7.248;2023-01-30T01:28:10;13.23;;;10.07;;
2934;SDS011;2462;51.456;7.248;2023-01-30T01:30:36;18.10;;;12.27;;
2934;SDS011;2462;51.456;7.248;2023-01-30T01:33:03;14.73;;;10.23;;
2934;SDS011;2462;51.456;7.248;2023-01-30T01:35:29;16.67;;;11.20;;
2934;SDS011;2462;51.456;7.248;2023-01-30T01:37:55;16.63;;;10.80;;
2934;SDS011;2462;51.456;7.248;2023-01-30T01:40:21;13.83;;;10.87;;
2934;SDS011;2462;51.456;7.248;2023-01-30T01:43:16;15.53;;;12.03;;
2934;SDS011;2462;51.456;7.248;2023-01-30T01:45:42;13.70;;;10.30;;
2934;SDS011;2462;51.456;7.248;2023-01-30T01:48:11;17.53;;;12.00;;
2934;SDS011;2462;51.456;7.248;2023-01-30T01:50:48;14.93;;;10.50;;
2934;SDS011;2462;51.456;7.248;2023-01-30T01:53:16;16.03;;;11.67;;
2934;SDS011;2462;51.456;7.248;2023-01-30T01:55:43;16.40;;;11.33;;
2934;SDS011;2462;51.456;7.248;2023-01-30T01:58:13;15.57;;;10.80;;
2934;SDS011;2462;51.456;7.248;2023-01-30T02:00:40;14.90;;;11.00;;
2934;SDS011;2462;51.456;7.248;2023-01-30T02:03:10;13.17;;;10.40;;
2934;SDS011;2462;51.456;7.248;2023-01-30T02:05:42;15.13;;;10.80;;
2934;SDS011;2462;51.456;7.248;2023-01-30T02:11:08;15.10;;;11.20;;
2934;SDS011;2462;51.456;7.248;2023-01-30T02:13:35;15.50;;;10.07;;
2934;SDS011;2462;51.456;7.248;2023-01-30T02:16:02;16.00;;;11.03;;
2934;SDS011;2462;51.456;7.248;2023-01-30T02:18:28;18.70;;;11.50;;
2934;SDS011;2462;51.456;7.248;2023-01-30T02:36:14;14.60;;;10.87;;
2934;SDS011;2462;51.456;7.248;2023-01-30T02:38:49;13.00;;;10.10;;
2934;SDS011;2462;51.456;7.248;2023-01-30T02:46:21;13.93;;;11.60;;
2934;SDS011;2462;51.456;7.248;2023-01-30T02:51:19;15.67;;;11.63;;
2934;SDS011;2462;51.456;7.248;2023-01-30T02:53:46;15.77;;;10.80;;
2934;SDS011;2462;51.456;7.248;2023-01-30T02:56:12;16.47;;;11.63;;
2934;SDS011;2462;51.456;7.248;2023-01-30T02:58:41;12.20;;;10.00;;
2934;SDS011;2462;51.456;7.248;2023-01-30T03:03:43;14.93;;;10.30;;
2934;SDS011;2462;51.456;7.248;2023-01-30T03:06:24;16.40;;;10.40;;
2934;SDS011;2462;51.456;7.248;2023-01-30T03:09:00;15.10;;;10.30;;
2934;SDS011;2462;51.456;7.248;2023-01-30T03:11:29;13.53;;;9.90;;
2934;SDS011;2462;51.456;7.248;2023-01-30T03:16:32;12.53;;;9.83;;
2934;SDS011;2462;51.456;7.248;2023-01-30T03:19:00;15.50;;;10.97;;
2934;SDS011;2462;51.456;7.248;2023-01-30T03:21:27;15.10;;;9.73;;
2934;SDS011;2462;51.456;7.248;2023-01-30T03:23:53;14.03;;;10.60;;
2934;SDS011;2462;51.456;7.248;2023-01-30T03:26:20;13.97;;;10.90;;
2934;SDS011;2462;51.456;7.248;2023-01-30T03:28:48;13.90;;;10.17;;
2934;SDS011;2462;51.456;7.248;2023-01-30T03:31:15;15.07;;;9.23;;
2934;SDS011;2462;51.456;7.248;2023-01-30T03:33:41;12.97;;;11.13;;
2934;SDS011;2462;51.456;7.248;2023-01-30T03:36:07;16.17;;;11.17;;
2934;SDS011;2462;51.456;7.248;2023-01-30T03:38:34;15.00;;;11.00;;
2934;SDS011;2462;51.456;7.248;2023-01-30T03:41:00;13.60;;;9.73;;
2934;SDS011;2462;51.456;7.248;2023-01-30T03:43:26;17.40;;;10.93;;
2934;SDS011;2462;51.456;7.248;2023-01-30T03:45:52;14.50;;;11.07;;
2934;SDS011;2462;51.456;7.248;2023-01-30T03:48:18;15.00;;;10.47;;
2934;SDS011;2462;51.456;7.248;2023-01-30T03:50:44;12.67;;;10.43;;
2934;SDS011;2462;51.456;7.248;2023-01-30T03:53:10;16.63;;;11.90;;
2934;SDS011;2462;51.456;7.248;2023-01-30T03:55:36;13.50;;;10.37;;
2934;SDS011;2462;51.456;7.248;2023-01-30T03:58:03;15.43;;;10.77;;
2934;SDS011;2462;51.456;7.248;2023-01-30T04:00:29;12.70;;;10.60;;
2934;SDS011;2462;51.456;7.248;2023-01-30T04:02:55;13.70;;;10.47;;
2934;SDS011;2462;51.456;7.248;2023-01-30T04:05:22;13.00;;;10.00;;
2934;SDS011;2462;51.456;7.248;2023-01-30T04:07:49;13.03;;;9.80;;
2934;SDS011;2462;51.456;7.248;2023-01-30T04:10:15;13.93;;;10.00;;
2934;SDS011;2462;51.456;7.248;2023-01-30T04:12:43;14.00;;;10.37;;
2934;SDS011;2462;51.456;7.248;2023-01-30T04:15:10;16.03;;;11.33;;
2934;SDS011;2462;51.456;7.248;2023-01-30T04:17:36;12.80;;;10.30;;
2934;SDS011;2462;51.456;7.248;2023-01-30T04:20:02;12.63;;;10.93;;
2934;SDS011;2462;51.456;7.248;2023-01-30T04:22:28;14.47;;;10.97;;
2934;SDS011;2462;51.456;7.248;2023-01-30T04:24:54;12.70;;;9.70;;
2934;SDS011;2462;51.456;7.248;2023-01-30T04:27:20;13.63;;;9.33;;
2934;SDS011;2462;51.456;7.248;2023-01-30T04:29:46;13.97;;;10.47;;
2934;SDS011;2462;51.456;7.248;2023-01-30T04:32:12;13.03;;;9.97;;
2934;SDS011;2462;51.456;7.248;2023-01-30T04:34:38;13.87;;;10.30;;
2934;SDS011;2462;51.456;7.248;2023-01-30T04:37:04;12.90;;;10.20;;
2934;SDS011;2462;51.456;7.248;2023-01-30T04:39:30;11.63;;;9.73;;
2934;SDS011;2462;51.456;7.248;2023-01-30T04:41:56;13.27;;;10.10;;
2934;SDS011;2462;51.456;7.248;2023-01-30T04:44:22;14.93;;;10.13;;
2934;SDS011;2462;51.456;7.248;2023-01-30T04:46:48;11.97;;;9.13;;
2934;SDS011;2462;51.456;7.248;2023-01-30T04:49:14;13.60;;;11.10;;
2934;SDS011;2462;51.456;7.248;2023-01-30T04:51:40;17.40;;;12.60;;
2934;SDS011;2462;51.456;7.248;2023-01-30T04:54:06;19.27;;;13.83;;
2934;SDS011;2462;51.456;7.248;2023-01-30T04:56:32;22.37;;;15.10;;
2934;SDS011;2462;51.456;7.248;2023-01-30T04:58:58;16.60;;;13.47;;
2934;SDS011;2462;51.456;7.248;2023-01-30T05:01:25;20.70;;;14.13;;
2934;SDS011;2462;51.456;7.248;2023-01-30T05:03:54;16.73;;;13.53;;
2934;SDS011;2462;51.456;7.248;2023-01-30T05:06:20;17.13;;;13.27;;
2934;SDS011;2462;51.456;7.248;2023-01-30T05:08:48;15.90;;;13.20;;
2934;SDS011;2462;51.456;7.248;2023-01-30T05:11:14;19.67;;;14.57;;
2934;SDS011;2462;51.456;7.248;2023-01-30T05:13:40;18.80;;;13.93;;
2934;SDS011;2462;51.456;7.248;2023-01-30T05:16:08;17.77;;;13.13;;
2934;SDS011;2462;51.456;7.248;2023-01-30T05:18:34;16.00;;;12.50;;
2934;SDS011;2462;51.456;7.248;2023-01-30T05:21:04;19.63;;;13.87;;
2934;SDS011;2462;51.456;7.248;2023-01-30T05:23:30;18.00;;;13.40;;
2934;SDS011;2462;51.456;7.248;2023-01-30T05:25:56;22.13;;;14.87;;
2934;SDS011;2462;51.456;7.248;2023-01-30T05:28:22;22.27;;;16.30;;
2934;SDS011;2462;51.456;7.248;2023-01-30T05:30:48;20.10;;;15.10;;
2934;SDS011;2462;51.456;7.248;2023-01-30T05:33:14;21.70;;;15.43;;
2934;SDS011;2462;51.456;7.248;2023-01-30T05:35:49;16.80;;;14.30;;
2934;SDS011;2462;51.456;7.248;2023-01-30T05:38:15;20.00;;;13.97;;
2934;SDS011;2462;51.456;7.248;2023-01-30T05:40:41;19.63;;;13.33;;
2934;SDS011;2462;51.456;7.248;2023-01-30T05:43:07;17.00;;;13.63;;
2934;SDS011;2462;51.456;7.248;2023-01-30T05:45:34;16.67;;;13.50;;
2934;SDS011;2462;51.456;7.248;2023-01-30T05:48:00;18.03;;;13.00;;
2934;SDS011;2462;51.456;7.248;2023-01-30T05:50:26;16.60;;;13.50;;
2934;SDS011;2462;51.456;7.248;2023-01-30T05:52:52;15.50;;;12.27;;
2934;SDS011;2462;51.456;7.248;2023-01-30T05:55:18;17.43;;;12.93;;
2934;SDS011;2462;51.456;7.248;2023-01-30T05:57:44;18.10;;;12.23;;
2934;SDS011;2462;51.456;7.248;2023-01-30T06:00:10;16.13;;;12.77;;
2934;SDS011;2462;51.456;7.248;2023-01-30T06:02:36;16.83;;;12.63;;
2934;SDS011;2462;51.456;7.248;2023-01-30T06:05:02;13.60;;;11.43;;
2934;SDS011;2462;51.456;7.248;2023-01-30T06:07:29;14.57;;;11.67;;
2934;SDS011;2462;51.456;7.248;2023-01-30T06:09:55;18.20;;;12.77;;
2934;SDS011;2462;51.456;7.248;2023-01-30T06:12:20;15.90;;;12.50;;
2934;SDS011;2462;51.456;7.248;2023-01-30T06:14:46;16.73;;;12.03;;
2934;SDS011;2462;51.456;7.248;2023-01-30T06:17:12;16.30;;;12.43;;
2934;SDS011;2462;51.456;7.248;2023-01-30T06:19:38;15.80;;;11.90;;
2934;SDS011;2462;51.456;7.248;2023-01-30T06:22:04;15.97;;;12.23;;
2934;SDS011;2462;51.456;7.248;2023-01-30T06:24:30;16.43;;;11.93;;
2934;SDS011;2462;51.456;7.248;2023-01-30T06:26:57;15.30;;;11.40;;
2934;SDS011;2462;51.456;7.248;2023-01-30T06:29:23;14.80;;;12.30;;
2934;SDS011;2462;51.456;7.248;2023-01-30T06:31:49;13.70;;;11.33;;
2934;SDS011;2462;51.456;7.248;2023-01-30T06:34:15;13.37;;;10.83;;
2934;SDS011;2462;51.456;7.248;2023-01-30T06:36:41;13.10;;;10.60;;
2934;SDS011;2462;51.456;7.248;2023-01-30T06:39:08;15.13;;;11.53;;
2934;SDS011;2462;51.456;7.248;2023-01-30T06:44:09;14.80;;;10.97;;
2934;SDS011;2462;51.456;7.248;2023-01-30T06:46:36;13.27;;;10.90;;
2934;SDS011;2462;51.456;7.248;2023-01-30T06:49:02;11.80;;;9.80;;
2934;SDS011;2462;51.456;7.248;2023-01-30T06:51:28;14.50;;;11.97;;
2934;SDS011;2462;51.456;7.248;2023-01-30T06:53:54;11.73;;;9.80;;
2934;SDS011;2462;51.456;7.248;2023-01-30T06:56:20;14.63;;;11.83;;
2934;SDS011;2462;51.456;7.248;2023-01-30T06:58:46;14.80;;;10.47;;
2934;SDS011;2462;51.456;7.248;2023-01-30T07:01:12;14.30;;;11.90;;
2934;SDS011;2462;51.456;7.248;2023-01-30T07:03:38;15.07;;;10.83;;
2934;SDS011;2462;51.456;7.248;2023-01-30T07:06:04;13.30;;;11.57;;
2934;SDS011;2462;51.456;7.248;2023-01-30T07:08:30;12.90;;;10.37;;
2934;SDS011;2462;51.456;7.248;2023-01-30T07:10:56;13.47;;;10.70;;
2934;SDS011;2462;51.456;7.248;2023-01-30T07:13:22;12.83;;;9.73;;
2934;SDS011;2462;51.456;7.248;2023-01-30T07:15:48;11.77;;;10.10;;
2934;SDS011;2462;51.456;7.248;2023-01-30T07:18:14;13.23;;;10.60;;
2934;SDS011;2462;51.456;7.248;2023-01-30T07:20:40;12.20;;;10.10;;
2934;SDS011;2462;51.456;7.248;2023-01-30T07:23:06;11.80;;;10.47;;
2934;SDS011;2462;51.456;7.248;2023-01-30T07:25:32;12.00;;;10.33;;
2934;SDS011;2462;51.456;7.248;2023-01-30T07:27:59;10.37;;;8.87;;
2934;SDS011;2462;51.456;7.248;2023-01-30T07:30:26;13.00;;;10.33;;
2934;SDS011;2462;51.456;7.248;2023-01-30T07:32:54;13.20;;;10.03;;
2934;SDS011;2462;51.456;7.248;2023-01-30T07:35:21;11.93;;;9.27;;
2934;SDS011;2462;51.456;7.248;2023-01-30T07:37:47;10.30;;;8.77;;
2934;SDS011;2462;51.456;7.248;2023-01-30T07:40:14;9.53;;;8.53;;
2934;SDS011;2462;51.456;7.248;2023-01-30T07:42:40;9.70;;;8.70;;
2934;SDS011;2462;51.456;7.248;2023-01-30T07:45:06;11.30;;;9.07;;
2934;SDS011;2462;51.456;7.248;2023-01-30T07:47:33;10.70;;;8.60;;
2934;SDS011;2462;51.456;7.248;2023-01-30T07:49:59;8.37;;;7.57;;
2934;SDS011;2462;51.456;7.248;2023-01-30T07:52:25;10.20;;;8.43;;
2934;SDS011;2462;51.456;7.248;2023-01-30T07:54:51;10.00;;;8.33;;
2934;SDS011;2462;51.456;7.248;2023-01-30T07:57:17;11.30;;;7.40;;
2934;SDS011;2462;51.456;7.248;2023-01-30T07:59:43;9.07;;;8.17;;
2934;SDS011;2462;51.456;7.248;2023-01-30T08:02:09;9.87;;;7.90;;
2934;SDS011;2462;51.456;7.248;2023-01-30T08:04:35;11.10;;;8.30;;
2934;SDS011;2462;51.456;7.248;2023-01-30T08:07:02;9.23;;;7.83;;
2934;SDS011;2462;51.456;7.248;2023-01-30T08:09:28;8.80;;;7.50;;
2934;SDS011;2462;51.456;7.248;2023-01-30T08:11:54;9.90;;;8.43;;
2934;SDS011;2462;51.456;7.248;2023-01-30T08:14:20;10.07;;;8.20;;
2934;SDS011;2462;51.456;7.248;2023-01-30T08:16:47;8.90;;;7.80;;
2934;SDS011;2462;51.456;7.248;2023-01-30T08:19:13;11.70;;;7.60;;
2934;SDS011;2462;51.456;7.248;2023-01-30T08:21:39;10.40;;;8.60;;
2934;SDS011;2462;51.456;7.248;2023-01-30T08:24:05;10.77;;;6.90;;
2934;SDS011;2462;51.456;7.248;2023-01-30T08:26:31;8.70;;;7.70;;
2934;SDS011;2462;51.456;7.248;2023-01-30T08:28:57;9.50;;;7.93;;
2934;SDS011;2462;51.456;7.248;2023-01-30T08:31:23;7.60;;;6.77;;
2934;SDS011;2462;51.456;7.248;2023-01-30T08:33:49;10.23;;;7.20;;
2934;SDS011;2462;51.456;7.248;2023-01-30T08:36:15;7.70;;;6.93;;
2934;SDS011;2462;51.456;7.248;2023-01-30T08:38:41;7.97;;;7.17;;
2934;SDS011;2462;51.456;7.248;2023-01-30T08:41:07;8.53;;;6.80;;
2934;SDS011;2462;51.456;7.248;2023-01-30T08:43:34;8.20;;;7.00;;
2934;SDS011;2462;51.456;7.248;2023-01-30T08:46:00;10.10;;;7.00;;
2934;SDS011;2462;51.456;7.248;2023-01-30T08:48:26;8.40;;;7.03;;
2934;SDS011;2462;51.456;7.248;2023-01-30T08:50:52;7.70;;;5.43;;
2934;SDS011;2462;51.456;7.248;2023-01-30T08:53:19;7.20;;;6.10;;
2934;SDS011;2462;51.456;7.248;2023-01-30T08:55:45;9.23;;;5.72;;
2934;SDS011;2462;51.456;7.248;2023-01-30T08:58:11;8.27;;;6.13;;
2934;SDS011;2462;51.456;7.248;2023-01-30T09:00:37;14.07;;;5.77;;
2934;SDS011;2462;51.456;7.248;2023-01-30T09:03:03;8.47;;;5.17;;
2934;SDS011;2462;51.456;7.248;2023-01-30T09:05:29;8.90;;;5.87;;
2934;SDS011;2462;51.456;7.248;2023-01-30T09:07:55;9.03;;;5.50;;
2934;SDS011;2462;51.456;7.248;2023-01-30T09:10:21;6.93;;;5.50;;
2934;SDS011;2462;51.456;7.248;2023-01-30T09:12:48;6.80;;;5.40;;
2934;SDS011;2462;51.456;7.248;2023-01-30T09:15:14;12.47;;;6.13;;
2934;SDS011;2462;51.456;7.248;2023-01-30T09:17:40;6.07;;;4.87;;
2934;SDS011;2462;51.456;7.248;2023-01-30T09:20:09;5.83;;;4.97;;
2934;SDS011;2462;51.456;7.248;2023-01-30T09:22:35;8.20;;;5.20;;
2934;SDS011;2462;51.456;7.248;2023-01-30T09:25:01;6.80;;;4.50;;
2934;SDS011;2462;51.456;7.248;2023-01-30T09:27:27;7.80;;;5.23;;
2934;SDS011;2462;51.456;7.248;2023-01-30T09:29:53;6.60;;;4.70;;
2934;SDS011;2462;51.456;7.248;2023-01-30T09:32:20;8.93;;;5.57;;
2934;SDS011;2462;51.456;7.248;2023-01-30T09:34:46;8.63;;;5.20;;
2934;SDS011;2462;51.456;7.248;2023-01-30T09:37:12;7.20;;;4.30;;
2934;SDS011;2462;51.456;7.248;2023-01-30T09:39:38;10.80;;;5.30;;
2934;SDS011;2462;51.456;7.248;2023-01-30T09:47:09;6.60;;;4.80;;
2934;SDS011;2462;51.456;7.248;2023-01-30T09:54:37;7.57;;;5.70;;
2934;SDS011;2462;51.456;7.248;2023-01-30T09:57:23;4.80;;;4.23;;
2934;SDS011;2462;51.456;7.248;2023-01-30T09:59:52;9.40;;;4.97;;
2934;SDS011;2462;51.456;7.248;2023-01-30T10:05:04;7.30;;;5.20;;
2934;SDS011;2462;51.456;7.248;2023-01-30T10:26:12;5.60;;;4.07;;
2934;SDS011;2462;51.456;7.248;2023-01-30T10:28:41;6.67;;;4.00;;
2934;SDS011;2462;51.456;7.248;2023-01-30T10:31:09;8.40;;;4.37;;
2934;SDS011;2462;51.456;7.248;2023-01-30T10:33:43;7.25;;;3.80;;
2934;SDS011;2462;51.456;7.248;2023-01-30T10:36:10;6.15;;;4.07;;
2934;SDS011;2462;51.456;7.248;2023-01-30T10:43:31;6.70;;;4.50;;
2934;SDS011;2462;51.456;7.248;2023-01-30T10:53:42;8.07;;;3.67;;
2934;SDS011;2462;51.456;7.248;2023-01-30T10:56:12;6.20;;;3.57;;
2934;SDS011;2462;51.456;7.248;2023-01-30T11:01:23;9.10;;;2.73;;
2934;SDS011;2462;51.456;7.248;2023-01-30T11:04:03;7.27;;;3.37;;
2934;SDS011;2462;51.456;7.248;2023-01-30T11:06:32;11.48;;;3.22;;
2934;SDS011;2462;51.456;7.248;2023-01-30T11:08:58;16.55;;;3.90;;
2934;SDS011;2462;51.456;7.248;2023-01-30T11:11:28;12.57;;;3.67;;
2934;SDS011;2462;51.456;7.248;2023-01-30T11:14:02;10.57;;;3.80;;
2934;SDS011;2462;51.456;7.248;2023-01-30T11:16:29;9.00;;;3.63;;
2934;SDS011;2462;51.456;7.248;2023-01-30T11:18:55;7.40;;;2.77;;
2934;SDS011;2462;51.456;7.248;2023-01-30T11:21:25;11.60;;;3.53;;
2934;SDS011;2462;51.456;7.248;2023-01-30T11:23:53;10.33;;;3.30;;
2934;SDS011;2462;51.456;7.248;2023-01-30T11:26:23;31.97;;;4.30;;
2934;SDS011;2462;51.456;7.248;2023-01-30T11:28:49;61.60;;;6.90;;
2934;SDS011;2462;51.456;7.248;2023-01-30T11:31:17;38.90;;;5.57;;
2934;SDS011;2462;51.456;7.248;2023-01-30T11:33:43;40.60;;;6.20;;
2934;SDS011;2462;51.456;7.248;2023-01-30T11:36:24;42.37;;;6.23;;
2934;SDS011;2462;51.456;7.248;2023-01-30T11:38:55;29.37;;;5.23;;
2934;SDS011;2462;51.456;7.248;2023-01-30T11:41:21;73.07;;;9.20;;
2934;SDS011;2462;51.456;7.248;2023-01-30T11:43:48;58.93;;;9.00;;
2934;SDS011;2462;51.456;7.248;2023-01-30T11:46:16;56.37;;;7.80;;
2934;SDS011;2462;51.456;7.248;2023-01-30T11:48:53;38.63;;;6.07;;
2934;SDS011;2462;51.456;7.248;2023-01-30T11:51:23;37.37;;;7.00;;
2934;SDS011;2462;51.456;7.248;2023-01-30T11:53:53;48.30;;;9.53;;
2934;SDS011;2462;51.456;7.248;2023-01-30T11:56:39;47.07;;;6.57;;
2934;SDS011;2462;51.456;7.248;2023-01-30T12:01:44;82.83;;;10.20;;
2934;SDS011;2462;51.456;7.248;2023-01-30T12:04:10;88.83;;;9.40;;
2934;SDS011;2462;51.456;7.248;2023-01-30T12:06:38;70.07;;;8.23;;
2934;SDS011;2462;51.456;7.248;2023-01-30T12:09:05;77.80;;;8.37;;
2934;SDS011;2462;51.456;7.248;2023-01-30T12:14:07;107.70;;;9.77;;
2934;SDS011;2462;51.456;7.248;2023-01-30T12:19:06;58.63;;;7.50;;
2934;SDS011;2462;51.456;7.248;2023-01-30T12:26:53;44.10;;;6.90;;
2934;SDS011;2462;51.456;7.248;2023-01-30T12:29:31;57.70;;;7.23;;
2934;SDS011;2462;51.456;7.248;2023-01-30T12:34:27;31.20;;;5.30;;
2934;SDS011;2462;51.456;7.248;2023-01-30T12:39:41;26.27;;;5.47;;
2934;SDS011;2462;51.456;7.248;2023-01-30T12:47:35;30.20;;;5.63;;
2934;SDS011;2462;51.456;7.248;2023-01-30T12:50:05;24.73;;;5.00;;
2934;SDS011;2462;51.456;7.248;2023-01-30T12:58:02;34.70;;;6.17;;
2934;SDS011;2462;51.456;7.248;2023-01-30T13:05:56;19.37;;;4.30;;
2934;SDS011;2462;51.456;7.248;2023-01-30T13:13:21;7.40;;;3.20;;
2934;SDS011;2462;51.456;7.248;2023-01-30T13:18:23;19.70;;;4.10;;
2934;SDS011;2462;51.456;7.248;2023-01-30T13:26:15;14.70;;;2.90;;
2934;SDS011;2462;51.456;7.248;2023-01-30T13:28:50;7.63;;;2.80;;
2934;SDS011;2462;51.456;7.248;2023-01-30T13:31:20;12.73;;;3.60;;
2934;SDS011;2462;51.456;7.248;2023-01-30T13:33:52;11.00;;;3.03;;
2934;SDS011;2462;51.456;7.248;2023-01-30T13:36:24;9.77;;;2.50;;
2934;SDS011;2462;51.456;7.248;2023-01-30T13:41:18;9.47;;;3.43;;
2934;SDS011;2462;51.456;7.248;2023-01-30T13:43:45;11.67;;;3.30;;
2934;SDS011;2462;51.456;7.248;2023-01-30T13:46:16;12.20;;;2.80;;
2934;SDS011;2462;51.456;7.248;2023-01-30T13:48:59;5.80;;;2.60;;
2934;SDS011;2462;51.456;7.248;2023-01-30T13:51:45;15.90;;;3.10;;
2934;SDS011;2462;51.456;7.248;2023-01-30T13:56:55;17.87;;;3.67;;
2934;SDS011;2462;51.456;7.248;2023-01-30T13:59:38;11.03;;;3.87;;
2934;SDS011;2462;51.456;7.248;2023-01-30T14:09:48;8.60;;;3.13;;
2934;SDS011;2462;51.456;7.248;2023-01-30T14:12:24;8.67;;;3.17;;
2934;SDS011;2462;51.456;7.248;2023-01-30T14:15:09;6.90;;;3.03;;
2934;SDS011;2462;51.456;7.248;2023-01-30T14:20:26;11.00;;;3.10;;
2934;SDS011;2462;51.456;7.248;2023-01-30T14:27:48;14.40;;;3.57;;
2934;SDS011;2462;51.456;7.248;2023-01-30T14:33:02;11.10;;;3.17;;
2934;SDS011;2462;51.456;7.248;2023-01-30T14:35:28;9.13;;;2.93;;
2934;SDS011;2462;51.456;7.248;2023-01-30T14:40:34;13.00;;;3.53;;
2934;SDS011;2462;51.456;7.248;2023-01-30T14:53:46;6.50;;;2.80;;
2934;SDS011;2462;51.456;7.248;2023-01-30T14:56:12;6.53;;;2.97;;
2934;SDS011;2462;51.456;7.248;2023-01-30T14:58:38;9.83;;;3.30;;
2934;SDS011;2462;51.456;7.248;2023-01-30T15:01:04;6.77;;;2.70;;
2934;SDS011;2462;51.456;7.248;2023-01-30T15:03:30;8.70;;;3.03;;
2934;SDS011;2462;51.456;7.248;2023-01-30T15:06:03;7.43;;;2.93;;
2934;SDS011;2462;51.456;7.248;2023-01-30T15:08:30;7.57;;;2.23;;
2934;SDS011;2462;51.456;7.248;2023-01-30T15:16:18;7.50;;;2.70;;
2934;SDS011;2462;51.456;7.248;2023-01-30T15:27:02;7.90;;;2.40;;
2934;SDS011;2462;51.456;7.248;2023-01-30T15:34:47;5.73;;;2.67;;
2934;SDS011;2462;51.456;7.248;2023-01-30T15:37:27;7.17;;;2.80;;
2934;SDS011;2462;51.456;7.248;2023-01-30T15:40:08;8.30;;;2.73;;
2934;SDS011;2462;51.456;7.248;2023-01-30T15:42:35;4.10;;;2.40;;
2934;SDS011;2462;51.456;7.248;2023-01-30T15:47:51;8.20;;;2.73;;
2934;SDS011;2462;51.456;7.248;2023-01-30T15:50:21;5.27;;;2.83;;
2934;SDS011;2462;51.456;7.248;2023-01-30T15:52:48;10.50;;;2.60;;
2934;SDS011;2462;51.456;7.248;2023-01-30T15:55:22;8.60;;;2.40;;
2934;SDS011;2462;51.456;7.248;2023-01-30T15:57:50;4.97;;;3.40;;
2934;SDS011;2462;51.456;7.248;2023-01-30T16:00:20;6.97;;;2.90;;
2934;SDS011;2462;51.456;7.248;2023-01-30T16:02:49;8.13;;;2.40;;
2934;SDS011;2462;51.456;7.248;2023-01-30T16:05:16;6.47;;;2.33;;
2934;SDS011;2462;51.456;7.248;2023-01-30T16:07:44;6.47;;;2.50;;
2934;SDS011;2462;51.456;7.248;2023-01-30T16:10:31;5.43;;;2.70;;
2934;SDS011;2462;51.456;7.248;2023-01-30T16:12:57;7.87;;;3.00;;
2934;SDS011;2462;51.456;7.248;2023-01-30T16:15:30;8.17;;;2.53;;
2934;SDS011;2462;51.456;7.248;2023-01-30T16:20:23;6.67;;;2.50;;
2934;SDS011;2462;51.456;7.248;2023-01-30T16:22:50;6.13;;;3.20;;
2934;SDS011;2462;51.456;7.248;2023-01-30T16:25:19;4.87;;;2.17;;
2934;SDS011;2462;51.456;7.248;2023-01-30T16:27:46;6.77;;;2.43;;
2934;SDS011;2462;51.456;7.248;2023-01-30T16:30:18;7.53;;;2.58;;
2934;SDS011;2462;51.456;7.248;2023-01-30T16:32:44;4.63;;;2.20;;
2934;SDS011;2462;51.456;7.248;2023-01-30T16:37:50;8.37;;;2.53;;
2934;SDS011;2462;51.456;7.248;2023-01-30T16:40:22;5.60;;;2.40;;
2934;SDS011;2462;51.456;7.248;2023-01-30T16:42:55;5.80;;;2.33;;
2934;SDS011;2462;51.456;7.248;2023-01-30T16:50:41;5.07;;;1.93;;
2934;SDS011;2462;51.456;7.248;2023-01-30T16:53:11;8.23;;;2.17;;
2934;SDS011;2462;51.456;7.248;2023-01-30T16:55:39;7.93;;;2.80;;
2934;SDS011;2462;51.456;7.248;2023-01-30T16:58:11;6.40;;;2.27;;
2934;SDS011;2462;51.456;7.248;2023-01-30T17:00:40;5.30;;;2.77;;
2934;SDS011;2462;51.456;7.248;2023-01-30T17:03:16;5.97;;;2.40;;
2934;SDS011;2462;51.456;7.248;2023-01-30T17:05:44;4.63;;;2.20;;
2934;SDS011;2462;51.456;7.248;2023-01-30T17:10:58;7.70;;;2.47;;
2934;SDS011;2462;51.456;7.248;2023-01-30T17:13:34;7.80;;;2.80;;
2934;SDS011;2462;51.456;7.248;2023-01-30T17:18:46;9.83;;;3.20;;
2934;SDS011;2462;51.456;7.248;2023-01-30T17:21:12;5.63;;;2.40;;
2934;SDS011;2462;51.456;7.248;2023-01-30T17:23:39;6.10;;;2.53;;
2934;SDS011;2462;51.456;7.248;2023-01-30T17:26:06;8.53;;;2.80;;
2934;SDS011;2462;51.456;7.248;2023-01-30T17:28:32;5.43;;;2.57;;
2934;SDS011;2462;51.456;7.248;2023-01-30T17:30:58;9.27;;;2.50;;
2934;SDS011;2462;51.456;7.248;2023-01-30T17:33:24;7.10;;;2.30;;
2934;SDS011;2462;51.456;7.248;2023-01-30T17:35:50;6.27;;;2.40;;
2934;SDS011;2462;51.456;7.248;2023-01-30T17:38:16;5.87;;;2.63;;
2934;SDS011;2462;51.456;7.248;2023-01-30T17:40:42;5.90;;;3.27;;
2934;SDS011;2462;51.456;7.248;2023-01-30T17:43:09;8.10;;;2.57;;
2934;SDS011;2462;51.456;7.248;2023-01-30T17:45:36;7.00;;;2.30;;
2934;SDS011;2462;51.456;7.248;2023-01-30T17:48:03;5.70;;;2.40;;
2934;SDS011;2462;51.456;7.248;2023-01-30T17:50:29;8.97;;;2.60;;
2934;SDS011;2462;51.456;7.248;2023-01-30T17:52:56;5.57;;;2.40;;
2934;SDS011;2462;51.456;7.248;2023-01-30T17:55:22;3.53;;;1.93;;
2934;SDS011;2462;51.456;7.248;2023-01-30T17:57:48;6.10;;;2.33;;
2934;SDS011;2462;51.456;7.248;2023-01-30T18:00:15;6.87;;;2.43;;
2934;SDS011;2462;51.456;7.248;2023-01-30T18:02:41;6.90;;;3.00;;
2934;SDS011;2462;51.456;7.248;2023-01-30T18:05:08;6.37;;;2.30;;
2934;SDS011;2462;51.456;7.248;2023-01-30T18:07:34;6.90;;;3.10;;
2934;SDS011;2462;51.456;7.248;2023-01-30T18:10:00;4.23;;;2.03;;
2934;SDS011;2462;51.456;7.248;2023-01-30T18:12:27;5.60;;;2.27;;
2934;SDS011;2462;51.456;7.248;2023-01-30T18:14:53;7.03;;;2.40;;
2934;SDS011;2462;51.456;7.248;2023-01-30T18:17:19;5.47;;;2.53;;
2934;SDS011;2462;51.456;7.248;2023-01-30T18:19:47;6.87;;;2.67;;
2934;SDS011;2462;51.456;7.248;2023-01-30T18:22:14;3.60;;;1.77;;
2934;SDS011;2462;51.456;7.248;2023-01-30T18:24:40;4.70;;;2.33;;
2934;SDS011;2462;51.456;7.248;2023-01-30T18:27:06;6.53;;;2.00;;